createdAt,value
2022-12-04T00:01:23.997Z,34.58
2022-12-04T00:03:58.226Z,32.70
2022-12-04T00:06:25.907Z,37.30
2022-12-04T00:08:53.475Z,36.85
2022-12-04T00:11:25.849Z,32.25
2022-12-04T00:14:01.455Z,37.47
2022-12-04T00:16:34.719Z,32.28
2022-12-04T00:19:01.496Z,34.88
2022-12-04T00:21:28.038Z,38.63
2022-12-04T00:23:55.011Z,31.45
2022-12-04T00:26:26.797Z,33.50
2022-12-04T00:28:54.481Z,32.97
2022-12-04T00:31:27.546Z,32.75
2022-12-04T00:33:56.503Z,33.50
2022-12-04T00:36:25.372Z,36.92
2022-12-04T00:38:54.508Z,36.40
2022-12-04T00:41:25.604Z,33.20
2022-12-04T00:43:52.830Z,35.30
2022-12-04T00:46:22.385Z,35.58
2022-12-04T00:48:54.670Z,35.30
2022-12-04T00:51:24.438Z,31.38
2022-12-04T00:53:52.418Z,29.83
2022-12-04T00:56:22.255Z,30.83
2022-12-04T00:58:54.374Z,33.75
2022-12-04T01:01:22.127Z,37.88
2022-12-04T01:03:49.731Z,33.70
2022-12-04T01:06:28.773Z,32.85
2022-12-04T01:08:59.123Z,34.65
2022-12-04T01:11:29.651Z,35.30
2022-12-04T01:13:59.535Z,35.60
2022-12-04T01:16:33.109Z,35.28
2022-12-04T01:19:03.463Z,36.22
2022-12-04T01:21:34.754Z,36.63
2022-12-04T01:24:01.439Z,39.17
2022-12-04T01:26:28.205Z,34.28
2022-12-04T01:28:54.780Z,35.50
2022-12-04T01:31:24.617Z,36.97
2022-12-04T01:33:51.826Z,34.88
2022-12-04T01:36:27.030Z,39.45
2022-12-04T01:38:56.677Z,36.35
2022-12-04T01:41:31.468Z,33.45
2022-12-04T01:44:10.620Z,34.63
2022-12-04T01:46:37.827Z,37.72
2022-12-04T01:49:08.448Z,34.42
2022-12-04T01:51:43.102Z,34.65
2022-12-04T01:54:17.574Z,33.58
2022-12-04T01:56:52.854Z,37.03
2022-12-04T01:59:27.313Z,37.78
2022-12-04T02:02:00.705Z,36.80
2022-12-04T02:04:27.827Z,35.92
2022-12-04T02:06:54.438Z,36.13
2022-12-04T02:09:27.013Z,40.05
2022-12-04T02:12:25.532Z,34.50
2022-12-04T02:15:04.898Z,39.03
2022-12-04T02:17:37.706Z,39.15
2022-12-04T02:20:15.737Z,37.83
2022-12-04T02:23:10.335Z,40.05
2022-12-04T02:26:01.783Z,40.38
2022-12-04T02:28:31.451Z,37.92
2022-12-04T02:31:01.617Z,38.72
2022-12-04T02:33:31.283Z,37.97
2022-12-04T02:36:15.118Z,40.85
2022-12-04T02:39:00.885Z,40.92
2022-12-04T02:41:36.634Z,41.42
2022-12-04T02:44:23.293Z,37.70
2022-12-04T02:46:58.778Z,44.72
2022-12-04T02:52:01.273Z,41.95
2022-12-04T02:54:36.393Z,46.03
2022-12-04T02:57:09.776Z,45.67
2022-12-04T02:59:42.063Z,49.72
2022-12-04T03:02:14.642Z,48.28
2022-12-04T03:04:50.839Z,52.00
2022-12-04T03:07:31.089Z,55.75
2022-12-04T03:10:08.822Z,45.75
2022-12-04T03:12:53.323Z,47.95
2022-12-04T03:15:37.963Z,50.30
2022-12-04T03:18:15.370Z,42.55
2022-12-04T03:20:49.222Z,42.67
2022-12-04T03:23:28.429Z,40.25
2022-12-04T03:26:02.243Z,37.63
2022-12-04T03:28:44.065Z,42.60
2022-12-04T03:31:17.455Z,37.45
2022-12-04T03:33:47.749Z,38.50
2022-12-04T03:36:21.920Z,38.05
2022-12-04T03:39:05.371Z,36.28
2022-12-04T03:41:49.562Z,37.90
2022-12-04T03:44:27.607Z,37.78
2022-12-04T03:47:12.281Z,35.35
2022-12-04T03:50:00.228Z,40.22
2022-12-04T03:52:53.719Z,36.22
2022-12-04T03:55:40.979Z,33.80
2022-12-04T03:58:15.489Z,39.70
2022-12-04T04:00:44.363Z,32.83
2022-12-04T04:03:20.381Z,37.22
2022-12-04T04:05:52.366Z,36.85
2022-12-04T04:08:26.726Z,33.22
2022-12-04T04:11:21.322Z,34.95
2022-12-04T04:14:17.351Z,33.20
2022-12-04T04:17:12.249Z,34.25
2022-12-04T04:20:01.112Z,32.78
2022-12-04T04:22:54.482Z,32.22
2022-12-04T04:25:28.229Z,38.47
2022-12-04T04:27:56.918Z,31.83
2022-12-04T04:30:29.594Z,34.10
2022-12-04T04:33:11.474Z,33.38
2022-12-04T04:35:55.366Z,34.85
2022-12-04T04:38:38.212Z,34.30
2022-12-04T04:41:14.115Z,32.47
2022-12-04T04:43:43.214Z,30.80
2022-12-04T04:46:27.881Z,31.38
2022-12-04T04:49:01.553Z,36.50
2022-12-04T04:51:31.371Z,30.17
2022-12-04T04:54:05.167Z,30.58
2022-12-04T04:56:31.953Z,33.85
2022-12-04T04:59:00.757Z,34.88
2022-12-04T05:01:31.137Z,30.45
2022-12-04T05:03:57.906Z,31.80
2022-12-04T05:06:24.509Z,28.73
2022-12-04T05:08:51.230Z,32.53
2022-12-04T05:11:20.433Z,28.75
2022-12-04T05:13:49.283Z,28.90
2022-12-04T05:16:16.858Z,32.58
2022-12-04T05:19:06.415Z,29.65
2022-12-04T05:21:38.556Z,29.42
2022-12-04T05:24:07.875Z,27.17
2022-12-04T05:26:42.820Z,27.55
2022-12-04T05:29:09.873Z,28.00
2022-12-04T05:31:41.355Z,26.40
2022-12-04T05:34:10.378Z,32.85
2022-12-04T05:36:39.689Z,28.58
2022-12-04T05:41:40.491Z,23.85
2022-12-04T05:44:07.306Z,23.67
2022-12-04T05:46:39.171Z,24.92
2022-12-04T05:49:05.802Z,26.90
2022-12-04T05:51:32.595Z,28.27
2022-12-04T05:54:03.903Z,23.75
2022-12-04T05:56:33.376Z,24.42
2022-12-04T05:59:02.287Z,27.13
2022-12-04T06:01:29.348Z,25.45
2022-12-04T06:03:58.264Z,24.23
2022-12-04T06:06:26.022Z,23.15
2022-12-04T06:08:57.813Z,29.45
2022-12-04T06:11:29.187Z,25.80
2022-12-04T06:14:01.043Z,22.27
2022-12-04T06:16:33.487Z,25.77
2022-12-04T06:19:12.354Z,27.63
2022-12-04T06:21:41.097Z,27.98
2022-12-04T06:24:12.585Z,29.10
2022-12-04T06:26:57.417Z,29.02
2022-12-04T06:29:33.172Z,27.92
2022-12-04T06:32:00.226Z,28.40
2022-12-04T06:34:26.997Z,30.25
2022-12-04T06:36:56.104Z,26.73
2022-12-04T06:39:22.807Z,26.48
2022-12-04T06:41:52.329Z,24.70
2022-12-04T06:44:23.748Z,31.60
2022-12-04T06:46:50.749Z,25.58
2022-12-04T06:49:22.991Z,25.65
2022-12-04T06:51:52.594Z,28.25
2022-12-04T06:54:19.126Z,30.70
2022-12-04T06:56:48.107Z,24.83
2022-12-04T06:59:17.344Z,28.95
2022-12-04T07:01:43.983Z,30.02
2022-12-04T07:04:13.239Z,30.35
2022-12-04T07:06:42.287Z,26.88
2022-12-04T07:09:15.507Z,29.20
2022-12-04T07:11:46.144Z,28.25
2022-12-04T07:14:18.137Z,29.88
2022-12-04T07:16:47.021Z,30.05
2022-12-04T07:19:14.341Z,29.88
2022-12-04T07:21:42.085Z,31.40
2022-12-04T07:24:13.925Z,31.15
2022-12-04T07:26:40.997Z,32.75
2022-12-04T07:29:08.008Z,32.53
2022-12-04T07:31:34.682Z,33.22
2022-12-04T07:34:03.823Z,30.83
2022-12-04T07:36:30.424Z,32.25
2022-12-04T07:39:01.791Z,30.13
2022-12-04T07:41:28.462Z,32.00
2022-12-04T07:43:55.122Z,33.22
2022-12-04T07:46:29.163Z,29.60
2022-12-04T07:48:59.683Z,32.55
2022-12-04T07:51:29.301Z,30.92
2022-12-04T07:54:02.758Z,32.53
2022-12-04T07:56:32.349Z,29.83
2022-12-04T07:59:01.426Z,31.13
2022-12-04T08:01:30.543Z,30.02
2022-12-04T08:03:59.349Z,28.42
2022-12-04T08:06:29.938Z,29.95
2022-12-04T08:08:57.626Z,31.27
2022-12-04T08:11:27.107Z,28.73
2022-12-04T08:14:05.694Z,30.33
2022-12-04T08:16:35.643Z,28.38
2022-12-04T08:19:03.416Z,27.63
2022-12-04T08:21:34.976Z,27.73
2022-12-04T08:24:04.375Z,28.15
2022-12-04T08:29:04.130Z,27.80
2022-12-04T08:31:35.553Z,31.02
2022-12-04T08:34:07.022Z,31.10
2022-12-04T08:36:35.077Z,24.08
2022-12-04T08:39:06.211Z,34.30
2022-12-04T08:41:37.739Z,29.88
2022-12-04T08:44:04.634Z,26.60
2022-12-04T08:46:36.218Z,30.50
2022-12-04T08:49:05.953Z,29.52
2022-12-04T08:51:36.964Z,28.90
2022-12-04T08:54:09.366Z,37.38
2022-12-04T08:56:37.677Z,34.00
2022-12-04T08:59:06.683Z,36.15
2022-12-04T09:01:35.950Z,36.28
2022-12-04T09:06:29.514Z,35.80
2022-12-04T09:08:56.996Z,35.33
2022-12-04T09:11:29.919Z,33.00
2022-12-04T09:13:56.644Z,34.20
2022-12-04T09:16:25.204Z,35.92
2022-12-04T09:18:57.500Z,39.40
2022-12-04T09:21:32.209Z,35.17
2022-12-04T09:23:59.645Z,34.25
2022-12-04T09:26:32.075Z,33.83
2022-12-04T09:29:00.635Z,37.75
2022-12-04T09:31:30.659Z,35.58
2022-12-04T09:34:01.978Z,35.33
2022-12-04T09:36:31.522Z,34.65
2022-12-04T09:39:00.654Z,33.05
2022-12-04T09:41:38.727Z,33.28
2022-12-04T09:44:28.887Z,35.90
2022-12-04T09:47:25.090Z,32.00
2022-12-04T09:50:07.314Z,35.58
2022-12-04T09:52:52.553Z,31.98
2022-12-04T09:55:27.837Z,32.63
2022-12-04T09:58:02.567Z,33.72
2022-12-04T10:00:36.954Z,33.28
2022-12-04T10:03:17.955Z,28.45
2022-12-04T10:06:19.318Z,30.85
2022-12-04T10:09:01.844Z,33.47
2022-12-04T10:11:49.234Z,32.58
2022-12-04T10:14:29.633Z,34.40
2022-12-04T10:17:17.426Z,30.35
2022-12-04T10:20:04.168Z,28.27
2022-12-04T10:22:42.711Z,32.85
2022-12-04T10:25:15.384Z,30.30
2022-12-04T10:27:51.875Z,29.10
2022-12-04T10:30:33.451Z,27.45
2022-12-04T10:35:39.326Z,28.90
2022-12-04T10:38:21.378Z,27.58
2022-12-04T10:40:56.247Z,30.42
2022-12-04T10:43:43.423Z,25.83
2022-12-04T10:46:18.916Z,27.95
2022-12-04T10:48:49.795Z,29.10
2022-12-04T10:51:21.631Z,26.13
2022-12-04T10:53:51.261Z,25.48
2022-12-04T10:56:30.802Z,27.35
2022-12-04T10:59:08.781Z,25.80
2022-12-04T11:01:40.822Z,22.90
2022-12-04T11:04:19.746Z,23.67
2022-12-04T11:06:47.804Z,25.85
2022-12-04T11:09:23.974Z,24.08
2022-12-04T11:11:52.160Z,23.88
2022-12-04T11:14:23.359Z,23.52
2022-12-04T11:17:01.583Z,25.83
2022-12-04T11:19:31.331Z,24.65
2022-12-04T11:22:11.979Z,19.33
2022-12-04T11:24:40.678Z,20.83
2022-12-04T11:27:18.637Z,19.33
2022-12-04T11:29:48.380Z,18.92
2022-12-04T11:32:29.952Z,18.35
2022-12-04T11:35:09.055Z,20.10
2022-12-04T11:37:45.299Z,18.88
2022-12-04T11:40:21.065Z,20.50
2022-12-04T11:43:02.561Z,19.13
2022-12-04T11:48:02.214Z,19.38
2022-12-04T11:50:47.608Z,18.50
2022-12-04T11:53:23.456Z,17.50
2022-12-04T11:55:52.952Z,20.23
2022-12-04T11:58:26.779Z,19.20
2022-12-04T12:01:06.215Z,21.63
2022-12-04T12:03:44.416Z,20.48
2022-12-04T12:06:30.013Z,17.92
2022-12-04T12:09:18.311Z,20.58
2022-12-04T12:11:57.383Z,18.40
2022-12-04T12:14:58.637Z,22.02
2022-12-04T12:17:52.820Z,19.08
2022-12-04T12:20:25.621Z,19.98
2022-12-04T12:22:52.197Z,19.33
2022-12-04T12:25:46.236Z,19.30
2022-12-04T12:28:17.503Z,19.23
2022-12-04T12:31:06.432Z,21.20
2022-12-04T12:34:09.964Z,18.85
2022-12-04T12:36:43.857Z,21.45
2022-12-04T12:39:26.667Z,20.70
2022-12-04T12:41:57.320Z,20.77
2022-12-04T12:44:54.569Z,21.17
2022-12-04T12:47:28.804Z,20.23
2022-12-04T12:56:47.916Z,17.92
2022-12-04T12:59:21.228Z,18.25
2022-12-04T13:02:02.434Z,20.52
2022-12-04T13:04:58.805Z,20.52
2022-12-04T13:07:35.359Z,21.13
2022-12-04T13:10:52.002Z,19.83
2022-12-04T13:13:53.215Z,20.55
2022-12-04T13:16:42.020Z,19.85
2022-12-04T13:19:20.988Z,20.42
2022-12-04T13:25:55.966Z,19.85
2022-12-04T13:28:23.558Z,18.92
2022-12-04T13:32:06.746Z,17.98
2022-12-04T13:34:36.332Z,18.60
2022-12-04T13:37:11.855Z,23.10
2022-12-04T13:39:59.618Z,21.27
2022-12-04T13:42:28.928Z,20.70
2022-12-04T13:45:11.125Z,21.80
2022-12-04T13:47:42.623Z,20.75
2022-12-04T13:50:21.331Z,22.83
2022-12-04T13:56:43.070Z,22.23
2022-12-04T14:06:25.481Z,22.13
2022-12-04T14:09:03.665Z,21.50
2022-12-04T14:11:42.611Z,21.35
2022-12-04T14:14:55.871Z,21.80
2022-12-04T14:17:37.589Z,21.45
2022-12-04T14:20:21.966Z,19.15
2022-12-04T14:22:51.105Z,21.30
2022-12-04T14:27:55.058Z,18.48
2022-12-04T14:30:27.455Z,22.10
2022-12-04T14:33:08.481Z,21.98
2022-12-04T14:35:43.773Z,19.27
2022-12-04T14:41:03.655Z,18.65
2022-12-04T14:43:44.475Z,17.08
2022-12-04T14:46:39.674Z,18.33
2022-12-04T14:49:33.831Z,20.48
2022-12-04T14:52:24.262Z,19.67
2022-12-04T14:55:32.317Z,21.98
2022-12-04T14:58:24.918Z,27.08
2022-12-04T15:00:53.545Z,22.80
2022-12-04T15:03:24.415Z,21.63
2022-12-04T15:06:01.004Z,23.98
2022-12-04T15:08:30.347Z,22.48
2022-12-04T15:11:18.115Z,25.02
2022-12-04T15:13:45.073Z,25.05
2022-12-04T15:16:45.865Z,24.60
2022-12-04T15:23:04.661Z,21.60
2022-12-04T15:25:45.312Z,23.52
2022-12-04T15:28:28.308Z,23.65
2022-12-04T15:30:59.264Z,27.08
2022-12-04T15:33:30.757Z,23.77
2022-12-04T15:36:04.402Z,25.10
2022-12-04T15:38:34.243Z,27.58
2022-12-04T15:41:02.075Z,27.92
2022-12-04T15:43:39.972Z,82.75
2022-12-04T15:46:43.534Z,26.38
2022-12-04T18:30:21.356Z,31.33
2022-12-04T18:35:19.291Z,34.33
2022-12-04T18:37:48.709Z,36.53
2022-12-04T18:40:15.483Z,41.22
2022-12-04T18:42:44.496Z,33.70
2022-12-04T18:45:11.627Z,37.13
2022-12-04T18:47:38.659Z,52.65
2022-12-04T18:50:05.903Z,32.13
2022-12-04T18:52:36.131Z,32.63
2022-12-04T18:55:02.781Z,35.17
2022-12-04T18:57:29.520Z,36.13
2022-12-04T18:59:58.815Z,37.30
2022-12-04T19:02:30.837Z,34.28
2022-12-04T19:05:00.094Z,34.92
2022-12-04T19:10:15.841Z,32.80
2022-12-04T19:12:45.452Z,33.72
2022-12-04T19:15:12.142Z,31.23
2022-12-04T19:17:38.855Z,33.85
2022-12-04T19:20:09.570Z,34.17
2022-12-04T19:22:37.387Z,31.17
2022-12-04T19:25:09.845Z,32.83
2022-12-04T19:27:41.309Z,29.92
2022-12-04T19:30:08.629Z,28.88
2022-12-04T19:32:39.069Z,28.85
2022-12-04T19:35:08.606Z,26.00
2022-12-04T19:37:42.096Z,31.75
2022-12-04T19:40:09.530Z,30.95
2022-12-04T19:42:38.458Z,26.92
2022-12-04T19:45:07.981Z,30.48
2022-12-04T19:47:39.583Z,29.58
2022-12-04T19:50:11.474Z,27.38
2022-12-04T19:52:40.728Z,28.90
2022-12-04T19:57:38.848Z,29.27
2022-12-04T20:02:37.573Z,26.85
2022-12-04T20:07:30.978Z,26.58
2022-12-04T20:10:00.252Z,26.67
2022-12-04T20:12:29.308Z,26.40
2022-12-04T20:14:55.941Z,26.77
2022-12-04T20:17:22.579Z,27.10
2022-12-04T20:19:51.522Z,27.88
2022-12-04T20:22:20.343Z,26.10
2022-12-04T20:24:49.287Z,23.90
2022-12-04T20:27:16.169Z,25.95
2022-12-04T20:29:43.150Z,29.58
2022-12-04T20:32:09.911Z,27.70
2022-12-04T20:34:43.202Z,27.33
2022-12-04T20:37:13.560Z,29.13
2022-12-04T20:39:40.435Z,28.92
2022-12-04T20:42:07.492Z,25.55
2022-12-04T20:44:34.465Z,29.60
2022-12-04T20:47:03.716Z,34.22
2022-12-04T20:52:25.433Z,32.05
2022-12-04T20:54:52.153Z,25.83
2022-12-04T20:57:18.804Z,28.17
2022-12-04T20:59:49.069Z,27.35
2022-12-04T21:02:15.887Z,28.92
2022-12-04T21:04:45.071Z,27.10
2022-12-04T21:07:14.270Z,24.98
2022-12-04T21:12:28.173Z,29.00
2022-12-04T21:15:19.050Z,26.85
2022-12-04T21:17:48.768Z,27.35
2022-12-04T21:20:23.278Z,26.23
2022-12-04T21:22:55.289Z,21.67
2022-12-04T21:25:27.600Z,28.38
2022-12-04T21:27:55.048Z,23.63
2022-12-04T21:30:24.974Z,25.30
2022-12-04T21:32:51.653Z,23.88
2022-12-04T21:35:18.241Z,24.52
2022-12-04T21:37:47.771Z,22.63
2022-12-04T21:40:16.830Z,22.48
2022-12-04T21:42:44.275Z,21.92
2022-12-04T21:45:14.646Z,18.80
2022-12-04T21:47:43.788Z,24.42
2022-12-04T21:50:13.071Z,19.45
2022-12-04T21:57:43.743Z,21.00
2022-12-04T22:00:21.941Z,18.88
2022-12-04T22:03:02.753Z,15.30
2022-12-04T22:05:34.453Z,13.55
2022-12-04T22:08:02.619Z,12.73
2022-12-04T22:10:29.636Z,13.90
2022-12-04T22:12:56.271Z,13.13
2022-12-04T22:15:23.282Z,13.80
2022-12-04T22:17:55.913Z,16.02
2022-12-04T22:20:27.513Z,11.85
2022-12-04T22:22:57.094Z,8.30
2022-12-04T22:25:33.389Z,9.05
2022-12-04T22:28:02.561Z,11.38
2022-12-04T22:30:31.726Z,8.18
2022-12-04T22:32:58.441Z,8.35
2022-12-04T22:35:25.283Z,7.60
2022-12-04T22:37:52.030Z,10.10
2022-12-04T22:40:18.900Z,8.38
2022-12-04T22:42:48.507Z,8.52
2022-12-04T22:45:15.424Z,10.60
2022-12-04T22:47:42.226Z,10.07
2022-12-04T22:50:09.775Z,7.75
2022-12-04T22:52:36.584Z,7.30
2022-12-04T22:55:08.671Z,6.78
2022-12-04T22:57:38.167Z,7.80
2022-12-04T23:00:29.273Z,8.00
2022-12-04T23:03:01.280Z,8.48
2022-12-04T23:05:28.011Z,8.77
2022-12-04T23:07:55.437Z,9.02
2022-12-04T23:10:24.589Z,7.50
2022-12-04T23:12:51.298Z,7.88
2022-12-04T23:15:23.046Z,8.05
2022-12-04T23:17:49.812Z,7.38
2022-12-04T23:20:16.733Z,8.00
2022-12-04T23:22:43.399Z,8.13
2022-12-04T23:25:10.390Z,8.60
2022-12-04T23:27:36.979Z,9.98
2022-12-04T23:30:04.136Z,10.10
2022-12-04T23:32:30.855Z,11.98
2022-12-04T23:34:57.673Z,7.93
2022-12-04T23:37:24.296Z,7.75
2022-12-04T23:39:51.290Z,7.97
2022-12-04T23:42:18.094Z,9.32
2022-12-04T23:44:44.710Z,7.60
2022-12-04T23:47:11.414Z,10.10
2022-12-04T23:49:43.124Z,9.45
2022-12-04T23:52:09.977Z,7.97
2022-12-04T23:54:37.830Z,8.35
2022-12-04T23:57:04.773Z,8.68
2022-12-04T23:59:33.840Z,9.30
